Time;durP1;ratioP1;P1;durP2;ratioP2;P2;SDS_P1;SDS_P2;PMS_P1;PMS_P2;Temp;Humidity;BMP_temperature;BMP_pressure;BME280_temperature;BME280_humidity;BME280_pressure;Samples;Min_cycle;Max_cycle;Signal;HPM_P1;HPM_P2
2023/12/07 00:01:29;;;;;;;11.83;8.33;;;;;;;;;;5050144;28;20214;-92
2023/12/07 00:03:57;;;;;;;10.00;7.23;;;;;;;;;;5050098;28;20213;-93
2023/12/07 00:06:24;;;;;;;10.57;8.67;;;;;;;;;;5036990;28;20202;-93
2023/12/07 00:08:51;;;;;;;10.53;7.90;;;;;;;;;;5037803;28;20229;-93
2023/12/07 00:11:18;;;;;;;10.77;9.43;;;;;;;;;;5044060;28;20230;-93
2023/12/07 00:13:45;;;;;;;13.90;9.60;;;;;;;;;;5042484;28;20217;-93
2023/12/07 00:16:12;;;;;;;9.63;8.47;;;;;;;;;;5050064;28;20213;-93
2023/12/07 00:18:38;;;;;;;10.47;8.60;;;;;;;;;;5049103;28;20213;-93
2023/12/07 00:21:09;;;;;;;10.90;9.40;;;;;;;;;;5049791;27;20205;-94
2023/12/07 00:23:36;;;;;;;10.93;7.97;;;;;;;;;;5037611;28;20210;-93
2023/12/07 00:26:04;;;;;;;9.47;7.67;;;;;;;;;;5030194;28;20202;-94
2023/12/07 00:28:31;;;;;;;12.67;8.03;;;;;;;;;;5030289;28;20221;-93
2023/12/07 00:31:05;;;;;;;10.93;8.13;;;;;;;;;;5043665;28;20230;-93
2023/12/07 00:33:32;;;;;;;10.20;7.97;;;;;;;;;;5030002;28;20748;-92
2023/12/07 00:36:00;;;;;;;11.40;8.17;;;;;;;;;;5037524;28;20213;-93
2023/12/07 00:38:28;;;;;;;12.93;9.73;;;;;;;;;;5036340;28;20247;-93
2023/12/07 00:40:55;;;;;;;11.53;9.40;;;;;;;;;;5049525;28;20213;-93
2023/12/07 00:43:22;;;;;;;16.03;10.37;;;;;;;;;;5047975;28;20292;-93
2023/12/07 00:45:49;;;;;;;14.23;9.97;;;;;;;;;;5038636;28;20202;-93
2023/12/07 00:48:16;;;;;;;16.27;10.53;;;;;;;;;;5049089;28;20210;-93
2023/12/07 00:50:42;;;;;;;16.23;11.33;;;;;;;;;;5040631;28;20237;-92
2023/12/07 00:53:09;;;;;;;15.07;10.63;;;;;;;;;;5042596;28;20206;-93
2023/12/07 00:55:38;;;;;;;12.17;10.20;;;;;;;;;;5029660;28;20681;-93
2023/12/07 00:58:04;;;;;;;12.87;9.27;;;;;;;;;;5031988;28;20221;-93
2023/12/07 01:00:31;;;;;;;13.63;9.13;;;;;;;;;;5039805;28;20203;-93
2023/12/07 01:02:58;;;;;;;13.40;9.00;;;;;;;;;;5042626;28;20211;-94
2023/12/07 01:05:25;;;;;;;13.13;9.77;;;;;;;;;;5029290;28;20215;-93
2023/12/07 01:07:52;;;;;;;13.00;9.87;;;;;;;;;;5033363;28;20615;-93
2023/12/07 01:10:19;;;;;;;15.27;10.83;;;;;;;;;;5049334;28;20225;-91
2023/12/07 01:12:47;;;;;;;13.97;10.37;;;;;;;;;;5049103;28;20206;-93
2023/12/07 01:15:14;;;;;;;13.73;10.70;;;;;;;;;;5049627;28;20296;-93
2023/12/07 01:17:41;;;;;;;13.83;11.67;;;;;;;;;;5035457;28;20218;-93
2023/12/07 01:20:12;;;;;;;15.97;11.73;;;;;;;;;;5049299;28;20206;-93
2023/12/07 01:22:40;;;;;;;15.43;11.03;;;;;;;;;;5035844;28;20217;-94
2023/12/07 01:25:07;;;;;;;16.83;10.73;;;;;;;;;;5049492;28;20361;-93
2023/12/07 01:27:34;;;;;;;12.17;10.07;;;;;;;;;;5035946;28;20248;-93
2023/12/07 01:30:06;;;;;;;15.47;10.50;;;;;;;;;;5038700;28;20234;-93
2023/12/07 01:32:34;;;;;;;18.13;11.27;;;;;;;;;;5033006;28;20210;-93
2023/12/07 01:35:01;;;;;;;11.17;8.83;;;;;;;;;;5033459;28;20210;-93
2023/12/07 01:37:29;;;;;;;14.03;10.30;;;;;;;;;;5045530;28;20210;-93
2023/12/07 01:39:56;;;;;;;12.40;9.77;;;;;;;;;;5033971;28;20293;-93
2023/12/07 01:42:23;;;;;;;10.10;8.40;;;;;;;;;;5044640;28;20206;-95
2023/12/07 01:44:49;;;;;;;10.30;8.10;;;;;;;;;;5033813;28;20210;-93
2023/12/07 01:47:18;;;;;;;43.03;27.87;;;;;;;;;;5052577;28;20648;-94
2023/12/07 01:49:45;;;;;;;20.70;14.83;;;;;;;;;;5038407;28;20229;-94
2023/12/07 01:52:12;;;;;;;10.97;8.63;;;;;;;;;;5052338;28;20703;-94
2023/12/07 01:54:39;;;;;;;12.40;9.20;;;;;;;;;;5036965;28;20219;-94
2023/12/07 01:57:06;;;;;;;9.97;8.20;;;;;;;;;;5032299;28;20213;-94
2023/12/07 01:59:33;;;;;;;13.17;8.33;;;;;;;;;;5034002;28;20207;-92
2023/12/07 02:02:02;;;;;;;14.50;9.20;;;;;;;;;;5051865;28;20213;-93
2023/12/07 02:04:31;;;;;;;10.07;8.47;;;;;;;;;;5038456;28;20211;-93
2023/12/07 02:06:58;;;;;;;13.07;9.13;;;;;;;;;;5052090;28;20205;-93
2023/12/07 02:09:25;;;;;;;10.47;8.47;;;;;;;;;;5038935;28;20615;-92
2023/12/07 02:11:52;;;;;;;9.83;8.47;;;;;;;;;;5051884;28;20233;-91
2023/12/07 02:14:19;;;;;;;11.60;7.40;;;;;;;;;;5051815;27;20218;-93
2023/12/07 02:16:49;;;;;;;10.40;8.13;;;;;;;;;;5042310;28;20298;-92
2023/12/07 02:19:26;;;;;;;9.23;8.00;;;;;;;;;;5035333;28;20244;-91
2023/12/07 02:22:03;;;;;;;15.23;7.87;;;;;;;;;;5040486;28;20232;-93
2023/12/07 02:24:34;;;;;;;12.97;9.10;;;;;;;;;;5045434;28;20210;-92
2023/12/07 02:27:05;;;;;;;17.77;11.73;;;;;;;;;;5032287;28;20600;-93
2023/12/07 02:29:32;;;;;;;14.63;11.63;;;;;;;;;;5040206;28;20216;-92
2023/12/07 02:31:59;;;;;;;12.17;9.33;;;;;;;;;;5038360;28;20214;-93
2023/12/07 02:34:25;;;;;;;8.47;7.57;;;;;;;;;;5051681;28;20217;-92
2023/12/07 02:36:55;;;;;;;10.87;9.30;;;;;;;;;;5050211;28;20214;-93
2023/12/07 02:39:21;;;;;;;11.63;9.20;;;;;;;;;;5032065;28;20217;-92
2023/12/07 02:41:50;;;;;;;13.80;9.27;;;;;;;;;;5031063;28;20251;-93
2023/12/07 02:44:18;;;;;;;12.47;9.37;;;;;;;;;;5041038;28;20205;-94
2023/12/07 02:46:46;;;;;;;10.73;9.33;;;;;;;;;;5038288;28;20570;-92
2023/12/07 02:49:13;;;;;;;11.13;8.83;;;;;;;;;;5041473;28;20219;-94
2023/12/07 02:51:40;;;;;;;11.90;8.50;;;;;;;;;;5031504;28;20227;-92
2023/12/07 02:54:07;;;;;;;9.93;8.07;;;;;;;;;;5031689;28;20206;-93
2023/12/07 02:56:33;;;;;;;10.93;8.50;;;;;;;;;;5044422;28;20210;-93
2023/12/07 02:59:03;;;;;;;10.53;9.00;;;;;;;;;;5042302;28;20279;-93
2023/12/07 03:01:31;;;;;;;13.00;10.00;;;;;;;;;;5046914;27;20612;-93
2023/12/07 03:03:58;;;;;;;13.97;8.10;;;;;;;;;;5042638;28;20206;-93
2023/12/07 03:06:25;;;;;;;11.57;8.93;;;;;;;;;;5046549;28;20210;-92
2023/12/07 03:08:52;;;;;;;9.37;8.17;;;;;;;;;;5031497;28;20211;-92
2023/12/07 03:11:19;;;;;;;14.00;9.90;;;;;;;;;;5044065;28;20243;-92
2023/12/07 03:13:45;;;;;;;11.00;8.03;;;;;;;;;;5043136;28;20210;-94
2023/12/07 03:16:12;;;;;;;11.43;8.57;;;;;;;;;;5032189;28;20214;-92
2023/12/07 03:18:40;;;;;;;13.23;10.70;;;;;;;;;;5031142;28;20202;-93
2023/12/07 03:21:07;;;;;;;11.20;9.13;;;;;;;;;;5044517;28;20211;-92
2023/12/07 03:23:34;;;;;;;11.87;9.20;;;;;;;;;;5043436;28;20218;-92
2023/12/07 03:26:01;;;;;;;12.93;8.80;;;;;;;;;;5050413;28;20218;-93
2023/12/07 03:28:28;;;;;;;12.77;10.00;;;;;;;;;;5038663;28;20214;-93
2023/12/07 03:30:54;;;;;;;14.07;9.27;;;;;;;;;;5037160;28;20236;-93
2023/12/07 03:33:21;;;;;;;12.03;9.53;;;;;;;;;;5038457;28;20211;-92
2023/12/07 03:35:50;;;;;;;12.80;10.23;;;;;;;;;;5050883;28;20209;-93
2023/12/07 03:38:16;;;;;;;20.30;14.47;;;;;;;;;;5050740;28;20214;-91
2023/12/07 03:40:47;;;;;;;18.10;12.33;;;;;;;;;;5024414;28;20206;-92
2023/12/07 03:43:14;;;;;;;18.07;12.23;;;;;;;;;;5036320;28;20207;-93
2023/12/07 03:45:41;;;;;;;23.93;16.87;;;;;;;;;;5030126;28;20199;-93
2023/12/07 03:48:08;;;;;;;14.57;9.90;;;;;;;;;;5031120;28;20688;-93
2023/12/07 03:50:35;;;;;;;19.23;12.43;;;;;;;;;;5043086;28;20223;-93
2023/12/07 03:53:03;;;;;;;14.87;10.50;;;;;;;;;;5028702;28;20199;-93
2023/12/07 03:55:30;;;;;;;66.73;40.27;;;;;;;;;;5026244;28;20266;-93
2023/12/07 03:57:57;;;;;;;27.73;20.37;;;;;;;;;;5049117;28;20213;-92
2023/12/07 04:00:24;;;;;;;15.77;11.37;;;;;;;;;;5030784;28;20693;-93
2023/12/07 04:02:50;;;;;;;12.10;9.13;;;;;;;;;;5045312;28;20214;-92
2023/12/07 04:05:17;;;;;;;9.20;8.27;;;;;;;;;;5050246;28;20221;-94
2023/12/07 04:07:44;;;;;;;48.50;34.93;;;;;;;;;;5036147;28;20221;-94
2023/12/07 04:10:14;;;;;;;64.47;41.17;;;;;;;;;;5040960;28;20233;-92
2023/12/07 04:12:41;;;;;;;17.13;11.37;;;;;;;;;;5046903;28;20216;-93
2023/12/07 04:15:08;;;;;;;36.33;25.20;;;;;;;;;;5040351;27;20202;-93
2023/12/07 04:17:35;;;;;;;30.93;19.93;;;;;;;;;;5046905;28;20195;-92
2023/12/07 04:20:07;;;;;;;32.80;21.67;;;;;;;;;;5049965;28;20208;-92
2023/12/07 04:22:34;;;;;;;13.50;8.50;;;;;;;;;;5036510;28;20214;-96
2023/12/07 04:25:01;;;;;;;8.67;5.90;;;;;;;;;;5049834;28;20206;-95
2023/12/07 04:27:29;;;;;;;11.93;8.67;;;;;;;;;;5044770;28;20203;-93
2023/12/07 04:29:58;;;;;;;80.30;46.93;;;;;;;;;;5030173;28;20202;-92
2023/12/07 04:32:25;;;;;;;27.30;19.80;;;;;;;;;;5043432;28;20215;-92
2023/12/07 04:34:52;;;;;;;93.60;64.93;;;;;;;;;;5042319;28;20214;-92
2023/12/07 04:37:19;;;;;;;20.83;17.50;;;;;;;;;;5044228;28;20211;-92
2023/12/07 04:39:46;;;;;;;13.93;10.53;;;;;;;;;;5030291;28;20206;-92
2023/12/07 04:42:20;;;;;;;14.77;13.10;;;;;;;;;;5036016;28;20225;-91
2023/12/07 04:44:48;;;;;;;9.13;8.33;;;;;;;;;;5049452;28;20740;-91
2023/12/07 04:47:15;;;;;;;12.23;11.03;;;;;;;;;;5042139;28;20215;-91
2023/12/07 04:49:42;;;;;;;7.97;7.17;;;;;;;;;;5030633;28;20569;-92
2023/12/07 04:52:09;;;;;;;16.63;13.53;;;;;;;;;;5049495;28;20688;-90
2023/12/07 04:54:36;;;;;;;8.57;7.70;;;;;;;;;;5036259;28;20207;-91
2023/12/07 04:57:03;;;;;;;4.73;4.33;;;;;;;;;;5049613;27;20630;-93
2023/12/07 04:59:30;;;;;;;7.50;6.80;;;;;;;;;;5049687;28;20236;-93
2023/12/07 05:01:58;;;;;;;4.73;4.33;;;;;;;;;;5041272;28;20296;-92
2023/12/07 05:04:24;;;;;;;5.20;4.80;;;;;;;;;;5041761;28;20214;-92
2023/12/07 05:06:52;;;;;;;7.13;6.30;;;;;;;;;;5038648;28;20214;-91
2023/12/07 05:09:18;;;;;;;5.40;4.90;;;;;;;;;;5046983;28;20209;-93
2023/12/07 05:11:45;;;;;;;4.73;4.33;;;;;;;;;;5038152;28;20233;-93
2023/12/07 05:14:12;;;;;;;5.40;4.90;;;;;;;;;;5035721;28;20215;-94
2023/12/07 05:16:39;;;;;;;9.77;7.07;;;;;;;;;;5048991;28;20209;-95
2023/12/07 05:19:07;;;;;;;9.40;8.40;;;;;;;;;;5033407;28;20202;-85
2023/12/07 05:21:34;;;;;;;7.57;6.77;;;;;;;;;;5047659;28;20209;-87
2023/12/07 05:24:03;;;;;;;2.13;1.90;;;;;;;;;;5040456;28;20214;-88
2023/12/07 05:26:32;;;;;;;3.17;2.93;;;;;;;;;;5051568;28;20196;-87
2023/12/07 05:28:59;;;;;;;2.90;2.60;;;;;;;;;;5049359;28;20231;-88
2023/12/07 05:31:27;;;;;;;2.63;2.43;;;;;;;;;;5028925;28;20231;-88
2023/12/07 05:33:53;;;;;;;11.73;8.67;;;;;;;;;;5044671;28;20644;-87
2023/12/07 05:36:22;;;;;;;4.77;3.67;;;;;;;;;;5032851;28;20213;-86
2023/12/07 05:38:48;;;;;;;5.80;4.70;;;;;;;;;;5036529;28;20214;-85
2023/12/07 05:41:15;;;;;;;9.17;4.90;;;;;;;;;;5032437;28;20207;-86
2023/12/07 05:43:42;;;;;;;7.00;5.90;;;;;;;;;;5028226;28;20594;-86
2023/12/07 05:46:09;;;;;;;4.27;3.63;;;;;;;;;;5043020;28;20214;-85
2023/12/07 05:48:36;;;;;;;4.33;1.70;;;;;;;;;;5038408;28;20191;-85
2023/12/07 05:51:03;;;;;;;1.93;1.80;;;;;;;;;;5043192;28;20226;-86
2023/12/07 05:53:32;;;;;;;2.77;2.37;;;;;;;;;;5047838;28;20205;-86
2023/12/07 05:55:59;;;;;;;4.50;4.10;;;;;;;;;;5034114;28;20313;-85
2023/12/07 05:58:26;;;;;;;11.97;8.73;;;;;;;;;;5047719;28;20206;-86
2023/12/07 06:00:54;;;;;;;3.20;2.90;;;;;;;;;;5047092;28;20224;-86
2023/12/07 06:03:20;;;;;;;2.30;2.10;;;;;;;;;;5047576;28;20213;-86
2023/12/07 06:05:47;;;;;;;1.87;1.67;;;;;;;;;;5042569;28;20685;-86
2023/12/07 06:08:14;;;;;;;2.77;2.43;;;;;;;;;;5039052;28;20210;-86
2023/12/07 06:10:42;;;;;;;17.20;10.13;;;;;;;;;;5033682;28;20234;-86
2023/12/07 06:13:10;;;;;;;12.23;9.10;;;;;;;;;;5021709;28;20203;-86
2023/12/07 06:15:37;;;;;;;62.90;36.13;;;;;;;;;;5046752;28;20675;-85
2023/12/07 06:18:04;;;;;;;15.93;8.87;;;;;;;;;;5038203;28;20204;-86
2023/12/07 06:20:31;;;;;;;14.97;8.27;;;;;;;;;;5050454;28;20209;-85
2023/12/07 06:22:59;;;;;;;4.03;3.50;;;;;;;;;;5030836;28;20206;-86
2023/12/07 06:25:26;;;;;;;8.67;7.13;;;;;;;;;;5030435;28;20761;-86
2023/12/07 06:27:56;;;;;;;10.03;9.03;;;;;;;;;;5038326;28;20245;-86
2023/12/07 06:30:22;;;;;;;6.93;6.23;;;;;;;;;;5048993;28;20295;-84
2023/12/07 06:32:49;;;;;;;5.90;3.60;;;;;;;;;;5038006;28;20226;-85
2023/12/07 06:35:16;;;;;;;4.60;4.03;;;;;;;;;;5036580;28;20223;-86
2023/12/07 06:37:43;;;;;;;4.03;3.50;;;;;;;;;;5050534;28;20258;-85
2023/12/07 06:40:10;;;;;;;4.13;3.03;;;;;;;;;;5035301;28;20715;-86
2023/12/07 06:42:37;;;;;;;4.13;3.50;;;;;;;;;;5030455;28;20681;-85
2023/12/07 06:45:10;;;;;;;3.60;2.77;;;;;;;;;;5046183;28;20258;-85
2023/12/07 06:47:37;;;;;;;4.10;3.70;;;;;;;;;;5040145;28;20297;-85
2023/12/07 06:50:08;;;;;;;5.20;4.70;;;;;;;;;;5032946;28;20664;-84
2023/12/07 06:52:35;;;;;;;4.00;3.60;;;;;;;;;;5049954;28;20756;-84
2023/12/07 06:55:04;;;;;;;2.80;2.60;;;;;;;;;;5050102;28;20665;-85
2023/12/07 06:57:31;;;;;;;2.97;2.77;;;;;;;;;;5050079;28;20597;-85
2023/12/07 07:00:10;;;;;;;17.23;14.10;;;;;;;;;;5049496;28;20288;-85
2023/12/07 07:02:38;;;;;;;12.00;10.33;;;;;;;;;;5049706;28;20243;-85
2023/12/07 07:05:06;;;;;;;8.27;5.87;;;;;;;;;;5023709;28;20209;-85
2023/12/07 07:07:33;;;;;;;3.93;3.60;;;;;;;;;;5036532;28;20263;-85
2023/12/07 07:10:00;;;;;;;4.97;3.30;;;;;;;;;;5049750;28;20213;-85
2023/12/07 07:12:27;;;;;;;3.27;2.97;;;;;;;;;;5035954;28;20249;-85
2023/12/07 07:14:54;;;;;;;5.03;4.53;;;;;;;;;;5049712;28;20206;-85
2023/12/07 07:17:21;;;;;;;4.27;3.87;;;;;;;;;;5036375;28;20203;-85
2023/12/07 07:19:49;;;;;;;2.87;2.63;;;;;;;;;;5041368;28;20211;-85
2023/12/07 07:22:16;;;;;;;5.80;3.27;;;;;;;;;;5045005;28;20202;-85
2023/12/07 07:24:43;;;;;;;4.10;3.43;;;;;;;;;;5040859;28;20230;-85
2023/12/07 07:27:10;;;;;;;6.47;3.90;;;;;;;;;;5029012;28;20612;-85
2023/12/07 07:29:36;;;;;;;3.97;3.57;;;;;;;;;;5040412;28;20214;-86
2023/12/07 07:32:03;;;;;;;4.37;3.97;;;;;;;;;;5032681;28;20228;-85
2023/12/07 07:34:31;;;;;;;3.37;3.07;;;;;;;;;;5039557;28;20619;-85
2023/12/07 07:36:59;;;;;;;3.93;3.53;;;;;;;;;;5039210;28;20204;-86
2023/12/07 07:39:26;;;;;;;3.43;3.13;;;;;;;;;;5031357;28;20210;-86
2023/12/07 07:41:53;;;;;;;8.67;6.10;;;;;;;;;;5036287;28;20210;-85
2023/12/07 07:44:19;;;;;;;7.33;6.70;;;;;;;;;;5049542;28;20211;-86
2023/12/07 07:46:47;;;;;;;7.83;7.10;;;;;;;;;;5031634;28;20840;-85
2023/12/07 07:49:14;;;;;;;10.90;9.90;;;;;;;;;;5040746;28;20267;-86
2023/12/07 07:51:40;;;;;;;7.73;7.07;;;;;;;;;;5035695;28;20229;-86
2023/12/07 07:54:11;;;;;;;7.57;6.80;;;;;;;;;;5049700;27;20220;-85
2023/12/07 07:56:38;;;;;;;6.27;5.67;;;;;;;;;;5035365;28;20250;-85
2023/12/07 07:59:05;;;;;;;3.43;3.13;;;;;;;;;;5037252;28;20798;-85
2023/12/07 08:01:31;;;;;;;7.17;6.57;;;;;;;;;;5047539;28;20703;-85
2023/12/07 08:03:58;;;;;;;4.07;3.73;;;;;;;;;;5048886;28;20254;-85
2023/12/07 08:06:25;;;;;;;4.97;4.57;;;;;;;;;;5030134;28;20207;-85
2023/12/07 08:08:52;;;;;;;5.37;4.87;;;;;;;;;;5041837;28;20202;-86
2023/12/07 08:11:20;;;;;;;18.80;11.43;;;;;;;;;;5047956;28;20226;-86
2023/12/07 08:13:47;;;;;;;3.73;3.33;;;;;;;;;;5036372;28;20219;-86
2023/12/07 08:16:14;;;;;;;6.67;5.73;;;;;;;;;;5047953;28;20210;-85
2023/12/07 08:18:41;;;;;;;4.13;3.73;;;;;;;;;;5036207;28;20206;-86
2023/12/07 08:21:08;;;;;;;4.00;3.60;;;;;;;;;;5042159;28;20211;-86
2023/12/07 08:23:36;;;;;;;3.23;2.93;;;;;;;;;;5041377;28;20234;-86
2023/12/07 08:26:02;;;;;;;8.97;4.10;;;;;;;;;;5048391;28;20206;-86
2023/12/07 08:28:30;;;;;;;5.50;4.27;;;;;;;;;;5048997;28;20605;-86
2023/12/07 08:30:58;;;;;;;2.80;2.60;;;;;;;;;;5035191;28;20217;-86
2023/12/07 08:33:24;;;;;;;4.37;3.13;;;;;;;;;;5048523;28;20222;-86
2023/12/07 08:35:54;;;;;;;14.70;8.50;;;;;;;;;;5022330;28;20208;-86
2023/12/07 08:38:22;;;;;;;21.30;12.40;;;;;;;;;;5034861;28;20238;-87
2023/12/07 08:40:48;;;;;;;9.23;5.77;;;;;;;;;;5048590;28;20642;-86
2023/12/07 08:43:22;;;;;;;5.23;3.83;;;;;;;;;;5047533;28;20216;-86
2023/12/07 08:45:50;;;;;;;6.23;4.90;;;;;;;;;;5019899;28;20207;-87
2023/12/07 08:48:17;;;;;;;5.53;4.33;;;;;;;;;;5027392;28;20202;-86
2023/12/07 08:50:44;;;;;;;3.83;3.47;;;;;;;;;;5048730;28;20205;-86
2023/12/07 08:53:11;;;;;;;4.20;3.80;;;;;;;;;;5045256;28;20230;-87
2023/12/07 08:55:38;;;;;;;3.13;2.87;;;;;;;;;;5038755;28;20206;-87
2023/12/07 08:58:05;;;;;;;2.90;2.50;;;;;;;;;;5035794;28;20323;-87
2023/12/07 09:00:32;;;;;;;3.83;3.37;;;;;;;;;;5038344;28;20743;-86
2023/12/07 09:03:02;;;;;;;3.80;2.90;;;;;;;;;;5029034;28;20204;-87
2023/12/07 09:05:29;;;;;;;2.77;2.30;;;;;;;;;;5039810;28;20202;-86
2023/12/07 09:07:56;;;;;;;2.80;2.50;;;;;;;;;;5030527;28;20213;-86
2023/12/07 09:10:24;;;;;;;3.60;3.30;;;;;;;;;;5028886;28;20207;-87
2023/12/07 09:12:50;;;;;;;5.10;3.23;;;;;;;;;;5028424;28;20235;-86
2023/12/07 09:15:17;;;;;;;4.70;4.20;;;;;;;;;;5039212;28;20229;-86
2023/12/07 09:17:44;;;;;;;5.70;4.67;;;;;;;;;;5034696;28;20635;-86
2023/12/07 09:20:12;;;;;;;4.27;3.80;;;;;;;;;;5048234;28;20644;-86
2023/12/07 09:22:41;;;;;;;27.73;16.63;;;;;;;;;;5034793;28;20198;-86
2023/12/07 09:25:09;;;;;;;12.60;10.17;;;;;;;;;;5035610;28;20298;-86
2023/12/07 09:27:37;;;;;;;3.73;3.43;;;;;;;;;;5047835;28;20186;-86
2023/12/07 09:30:06;;;;;;;3.20;2.90;;;;;;;;;;5047919;28;20213;-86
2023/12/07 09:32:37;;;;;;;2.97;2.67;;;;;;;;;;5021986;28;20233;-86
2023/12/07 09:35:06;;;;;;;2.73;2.53;;;;;;;;;;5033465;28;20301;-86
2023/12/07 09:37:35;;;;;;;4.10;3.70;;;;;;;;;;5028168;28;20586;-86
2023/12/07 09:40:06;;;;;;;4.00;3.53;;;;;;;;;;5028314;28;20211;-87
2023/12/07 09:42:33;;;;;;;3.23;2.93;;;;;;;;;;5028324;28;20297;-88
2023/12/07 09:45:01;;;;;;;3.23;2.83;;;;;;;;;;5041612;28;20708;-86
2023/12/07 09:47:28;;;;;;;5.43;3.23;;;;;;;;;;5037520;28;20213;-86
2023/12/07 09:49:55;;;;;;;5.23;4.20;;;;;;;;;;5034288;28;20680;-86
2023/12/07 09:52:22;;;;;;;6.63;3.27;;;;;;;;;;5040549;28;20226;-86
2023/12/07 09:54:51;;;;;;;6.50;3.83;;;;;;;;;;5034600;28;20589;-87
2023/12/07 09:57:18;;;;;;;5.77;2.73;;;;;;;;;;5050876;28;20209;-85
2023/12/07 09:59:45;;;;;;;3.37;3.07;;;;;;;;;;5037558;28;20200;-86
2023/12/07 10:02:12;;;;;;;4.33;3.50;;;;;;;;;;5050339;28;20222;-85
2023/12/07 10:04:38;;;;;;;3.83;3.43;;;;;;;;;;5050826;28;20209;-87
2023/12/07 10:07:08;;;;;;;3.40;2.87;;;;;;;;;;5051126;28;20210;-86
2023/12/07 10:09:35;;;;;;;12.93;11.63;;;;;;;;;;5033495;28;20202;-87
2023/12/07 10:12:07;;;;;;;5.80;5.40;;;;;;;;;;5031225;28;20238;-85
2023/12/07 10:14:34;;;;;;;3.87;3.47;;;;;;;;;;5044129;28;20207;-86
2023/12/07 10:17:05;;;;;;;3.50;3.20;;;;;;;;;;5031074;28;20217;-86
2023/12/07 10:19:32;;;;;;;3.40;3.10;;;;;;;;;;5044108;28;20210;-86
2023/12/07 10:21:59;;;;;;;6.83;6.13;;;;;;;;;;5043118;28;20644;-86
2023/12/07 10:24:26;;;;;;;4.37;3.97;;;;;;;;;;5031118;28;20727;-86
2023/12/07 10:26:53;;;;;;;4.80;4.27;;;;;;;;;;5043474;28;20258;-86
2023/12/07 10:29:23;;;;;;;3.27;2.93;;;;;;;;;;5030812;28;20203;-85
2023/12/07 10:31:50;;;;;;;3.80;2.63;;;;;;;;;;5043634;28;20599;-86
2023/12/07 10:34:20;;;;;;;3.93;3.33;;;;;;;;;;5050871;28;20208;-86
2023/12/07 10:36:47;;;;;;;7.03;5.23;;;;;;;;;;5049307;28;20201;-86
2023/12/07 10:39:17;;;;;;;3.30;3.00;;;;;;;;;;5030958;28;20272;-87
2023/12/07 10:41:44;;;;;;;3.60;2.90;;;;;;;;;;5030749;28;20215;-86
2023/12/07 10:44:17;;;;;;;3.90;3.17;;;;;;;;;;5039132;28;20703;-87
2023/12/07 10:46:46;;;;;;;4.13;3.20;;;;;;;;;;5050670;28;20198;-86
2023/12/07 10:49:19;;;;;;;3.87;3.20;;;;;;;;;;5050760;28;20206;-86
2023/12/07 10:51:51;;;;;;;6.80;5.17;;;;;;;;;;5036417;28;20198;-86
2023/12/07 10:54:23;;;;;;;3.90;3.60;;;;;;;;;;5050092;28;20240;-86
2023/12/07 10:56:50;;;;;;;6.73;6.10;;;;;;;;;;5036786;28;20202;-87
2023/12/07 10:59:18;;;;;;;5.63;4.40;;;;;;;;;;5050656;28;20263;-86
2023/12/07 11:01:46;;;;;;;4.77;4.27;;;;;;;;;;5036603;28;20209;-87
2023/12/07 11:04:14;;;;;;;5.57;4.63;;;;;;;;;;5050197;28;20221;-87
2023/12/07 11:06:42;;;;;;;6.30;4.67;;;;;;;;;;5017143;28;20218;-87
2023/12/07 11:09:10;;;;;;;6.67;4.20;;;;;;;;;;5043610;28;20210;-87
2023/12/07 11:11:40;;;;;;;3.33;3.03;;;;;;;;;;5030308;28;20231;-87
2023/12/07 11:14:08;;;;;;;6.40;2.97;;;;;;;;;;5043187;28;20740;-87
2023/12/07 11:16:36;;;;;;;3.60;3.30;;;;;;;;;;5030230;28;20213;-87
2023/12/07 11:19:05;;;;;;;3.17;2.77;;;;;;;;;;5044830;28;20213;-86
2023/12/07 11:21:32;;;;;;;15.93;14.23;;;;;;;;;;5040753;28;20278;-86
2023/12/07 11:24:01;;;;;;;7.50;6.53;;;;;;;;;;5033039;28;20984;-87
2023/12/07 11:26:28;;;;;;;18.40;10.50;;;;;;;;;;5049431;28;20201;-86
2023/12/07 11:28:56;;;;;;;17.87;11.43;;;;;;;;;;5036496;28;20202;-87
2023/12/07 11:31:23;;;;;;;6.10;5.10;;;;;;;;;;5050028;28;20220;-87
2023/12/07 11:33:50;;;;;;;5.23;4.57;;;;;;;;;;5036639;28;20233;-87
2023/12/07 11:36:18;;;;;;;5.17;4.43;;;;;;;;;;5049645;28;20209;-87
2023/12/07 11:39:19;;;;;;;4.43;4.03;;;;;;;;;;5049919;28;20575;-87
2023/12/07 11:41:46;;;;;;;6.77;5.67;;;;;;;;;;5049132;28;20209;-86
2023/12/07 11:44:13;;;;;;;3.63;3.27;;;;;;;;;;5049328;28;20596;-86
2023/12/07 11:46:40;;;;;;;19.70;13.53;;;;;;;;;;5049032;28;20698;-85
2023/12/07 11:49:10;;;;;;;20.50;14.67;;;;;;;;;;5049733;28;20634;-87
2023/12/07 11:51:38;;;;;;;46.40;30.20;;;;;;;;;;5032714;28;20211;-87
2023/12/07 11:54:08;;;;;;;24.47;19.17;;;;;;;;;;5040034;28;20228;-87
2023/12/07 11:56:34;;;;;;;11.37;8.87;;;;;;;;;;5031954;28;20256;-86
2023/12/07 11:59:01;;;;;;;11.57;8.40;;;;;;;;;;5040858;28;20206;-86
2023/12/07 12:01:30;;;;;;;15.07;10.93;;;;;;;;;;5031223;28;20214;-86
2023/12/07 12:03:57;;;;;;;4.40;4.00;;;;;;;;;;5041020;28;20259;-87
2023/12/07 12:06:26;;;;;;;3.33;3.03;;;;;;;;;;5049160;28;20202;-87
2023/12/07 12:08:54;;;;;;;3.60;3.30;;;;;;;;;;5049564;28;20668;-87
2023/12/07 12:11:21;;;;;;;5.57;5.00;;;;;;;;;;5049217;28;20309;-86
2023/12/07 12:13:49;;;;;;;3.63;3.07;;;;;;;;;;5048439;28;20240;-87
2023/12/07 12:16:16;;;;;;;4.10;3.70;;;;;;;;;;5048838;28;20209;-87
2023/12/07 12:18:43;;;;;;;3.30;3.00;;;;;;;;;;5048977;28;20684;-87
2023/12/07 12:21:11;;;;;;;3.87;3.13;;;;;;;;;;5029508;28;20584;-87
2023/12/07 12:23:42;;;;;;;3.87;3.20;;;;;;;;;;5043108;28;20390;-87
2023/12/07 12:26:11;;;;;;;6.33;5.03;;;;;;;;;;5016481;28;20214;-86
2023/12/07 12:28:42;;;;;;;4.60;4.10;;;;;;;;;;5029864;28;20207;-87
2023/12/07 12:31:09;;;;;;;5.67;4.07;;;;;;;;;;5041317;28;20585;-87
2023/12/07 12:33:37;;;;;;;4.23;3.40;;;;;;;;;;5043971;28;20229;-87
2023/12/07 12:36:06;;;;;;;3.13;2.83;;;;;;;;;;5040075;28;20213;-87
2023/12/07 12:38:33;;;;;;;3.43;3.10;;;;;;;;;;5044544;28;20262;-87
2023/12/07 12:41:01;;;;;;;5.30;2.70;;;;;;;;;;5039443;28;20696;-87
2023/12/07 12:43:29;;;;;;;3.27;2.93;;;;;;;;;;5044907;28;20258;-87
2023/12/07 12:45:58;;;;;;;3.17;2.97;;;;;;;;;;5048759;28;20213;-88
2023/12/07 12:48:23;;;;;;;6.33;5.60;;;;;;;;;;5045169;28;20203;-87
2023/12/07 12:50:50;;;;;;;8.90;6.23;;;;;;;;;;5039007;28;20598;-87
2023/12/07 12:53:17;;;;;;;3.53;3.23;;;;;;;;;;5032306;28;20226;-88
2023/12/07 12:55:44;;;;;;;5.40;4.47;;;;;;;;;;5039106;28;20251;-87
2023/12/07 12:58:11;;;;;;;10.50;7.80;;;;;;;;;;5031749;28;20217;-87
2023/12/07 13:00:41;;;;;;;3.87;3.13;;;;;;;;;;5029099;28;20264;-86
2023/12/07 13:03:08;;;;;;;5.10;4.30;;;;;;;;;;5032654;28;20208;-87
2023/12/07 13:05:34;;;;;;;3.03;2.80;;;;;;;;;;5037817;28;20203;-87
2023/12/07 13:08:02;;;;;;;2.97;2.67;;;;;;;;;;5046515;28;20209;-87
2023/12/07 13:10:29;;;;;;;2.93;2.67;;;;;;;;;;5036702;28;20239;-87
2023/12/07 13:12:56;;;;;;;5.60;3.73;;;;;;;;;;5046938;28;20233;-86
2023/12/07 13:15:23;;;;;;;4.13;3.20;;;;;;;;;;5048566;28;20677;-86
2023/12/07 13:17:51;;;;;;;2.63;2.43;;;;;;;;;;5048050;28;20210;-87
2023/12/07 13:20:18;;;;;;;3.57;2.87;;;;;;;;;;5036538;28;20211;-87
2023/12/07 13:22:45;;;;;;;3.70;2.43;;;;;;;;;;5028692;28;20673;-87
2023/12/07 13:25:14;;;;;;;3.30;3.00;;;;;;;;;;5029540;28;20681;-87
2023/12/07 13:27:41;;;;;;;4.10;3.03;;;;;;;;;;5051501;28;20201;-89
2023/12/07 13:30:09;;;;;;;3.00;2.30;;;;;;;;;;5051990;28;20202;-87
2023/12/07 13:32:37;;;;;;;2.43;2.10;;;;;;;;;;5039173;28;20209;-88
2023/12/07 13:35:07;;;;;;;10.50;6.37;;;;;;;;;;5051840;28;20232;-86
2023/12/07 13:37:34;;;;;;;5.07;2.50;;;;;;;;;;5043670;28;20214;-87
2023/12/07 13:40:03;;;;;;;4.80;3.57;;;;;;;;;;5045254;28;20233;-86
2023/12/07 13:42:31;;;;;;;2.40;2.20;;;;;;;;;;5032219;28;20233;-88
2023/12/07 13:45:00;;;;;;;3.20;2.90;;;;;;;;;;5046472;28;20202;-87
2023/12/07 13:47:30;;;;;;;7.60;5.83;;;;;;;;;;5051342;28;20213;-87
2023/12/07 13:49:58;;;;;;;2.27;2.00;;;;;;;;;;5038095;28;20203;-87
2023/12/07 13:52:28;;;;;;;3.80;2.63;;;;;;;;;;5042107;28;20207;-87
2023/12/07 13:54:55;;;;;;;3.27;2.97;;;;;;;;;;5048173;28;20252;-87
2023/12/07 13:57:24;;;;;;;9.53;7.00;;;;;;;;;;5041362;28;20211;-87
2023/12/07 13:59:51;;;;;;;5.47;3.53;;;;;;;;;;5045091;28;20218;-87
2023/12/07 14:02:18;;;;;;;3.30;2.93;;;;;;;;;;5042282;28;20380;-88
2023/12/07 14:04:44;;;;;;;5.07;3.00;;;;;;;;;;5050937;28;20205;-88
2023/12/07 14:07:12;;;;;;;2.40;1.97;;;;;;;;;;5040593;28;20210;-87
2023/12/07 14:09:42;;;;;;;2.37;2.17;;;;;;;;;;5048740;28;20209;-88
2023/12/07 14:12:10;;;;;;;2.10;2.00;;;;;;;;;;5039431;28;20234;-87
2023/12/07 14:14:37;;;;;;;3.13;2.83;;;;;;;;;;5050530;28;20232;-87
2023/12/07 14:17:04;;;;;;;3.43;2.83;;;;;;;;;;5038467;28;20214;-88
2023/12/07 14:19:31;;;;;;;3.63;3.33;;;;;;;;;;5038450;28;20219;-89
2023/12/07 14:21:58;;;;;;;2.10;1.40;;;;;;;;;;5024958;28;20703;-88
2023/12/07 14:24:25;;;;;;;2.27;2.07;;;;;;;;;;5018213;28;20210;-88
2023/12/07 14:26:54;;;;;;;1.70;1.60;;;;;;;;;;5031661;28;20287;-86
2023/12/07 14:29:21;;;;;;;2.20;2.00;;;;;;;;;;5026161;28;20206;-88
2023/12/07 14:31:49;;;;;;;2.07;1.97;;;;;;;;;;5051245;28;20214;-87
2023/12/07 14:34:16;;;;;;;1.60;1.47;;;;;;;;;;5043728;28;20237;-89
2023/12/07 14:36:44;;;;;;;6.53;5.17;;;;;;;;;;5030242;28;20207;-88
2023/12/07 14:39:16;;;;;;;3.83;3.20;;;;;;;;;;5038583;28;20727;-88